Terminal Aerodrome Forecast
Issued by NWS

Home | Current Version | Previous Version | Text Only | Print | Product List | Glossary On
Versions: 1 2 3 4 5 6 7 8 9 10 11 12 13 14
000
FTUS43 KLSX 190500
TAFUIN
TAF
KUIN 190526Z 1906/2006 19009KT P6SM BKN100
     FM191400 27013KT P6SM BKN080
     FM191700 29015G24KT P6SM BKN030
     FM200100 29007KT P6SM FEW030=

USA.gov is the U.S. government's official web portal to all federal, state and local government web resources and services.